BOO weather

Bodø Airport
Bodø, Nordland, Norway

Public forecast

Using degrees Celsius for public forecast. Weather courtesy of forecast.io.

METAR (pilot weather report)

Retrieved 2019/05/24 00:50 UTC (21 minutes ago):

ENBO 240050Z 09019KT 9999 BKN045 07/M00 Q1010

TAF (pilot weather forecast)

Forecast is more than 12 hours old.

Retrieved 2019/05/23 00:57 UTC (1 day ago):

TAF TAF ENBO 232300Z 2400/2424 09018KT 9999 SCT040